createdAt,value
2019-04-16T00:05:20.683Z,4.13
2019-04-16T00:10:40.169Z,3.93
2019-04-16T00:15:44.396Z,4.67
2019-04-16T00:21:21.165Z,4.00
2019-04-16T00:26:26.846Z,4.30
2019-04-16T00:31:31.432Z,5.20
2019-04-16T00:36:35.669Z,4.03
2019-04-16T00:41:39.885Z,3.93
2019-04-16T00:46:44.056Z,3.70
2019-04-16T00:51:48.952Z,3.60
2019-04-16T00:56:53.095Z,4.50
2019-04-16T01:01:58.878Z,4.53
2019-04-16T01:07:03.650Z,3.60
2019-04-16T01:12:09.816Z,3.60
2019-04-16T01:17:13.975Z,7.60
2019-04-16T01:22:18.615Z,4.10
2019-04-16T01:27:30.925Z,4.60
2019-04-16T01:33:04.436Z,5.37
2019-04-16T01:38:28.683Z,4.20
2019-04-16T01:43:33.887Z,5.03
2019-04-16T01:48:39.012Z,5.33
2019-04-16T01:53:44.031Z,3.37
2019-04-16T01:58:49.869Z,4.73
2019-04-16T02:03:59.677Z,4.80
2019-04-16T02:09:06.356Z,6.90
2019-04-16T02:14:10.644Z,3.87
2019-04-16T02:19:15.453Z,5.70
2019-04-16T02:24:19.601Z,4.37
2019-04-16T02:29:24.242Z,4.27
2019-04-16T02:34:29.636Z,6.20
2019-04-16T02:39:47.650Z,6.23
2019-04-16T02:44:41.385Z,5.67
2019-04-16T02:49:45.558Z,5.90
2019-04-16T02:55:09.126Z,5.17
2019-04-16T03:00:36.491Z,5.97
2019-04-16T03:05:43.116Z,4.70
2019-04-16T03:10:47.977Z,4.17
2019-04-16T03:16:15.048Z,6.30
2019-04-16T03:21:20.450Z,5.10
2019-04-16T03:26:30.649Z,4.30
2019-04-16T03:31:32.354Z,4.23
2019-04-16T03:36:37.696Z,5.90
2019-04-16T03:41:41.879Z,5.40
2019-04-16T03:46:47.669Z,3.70
2019-04-16T03:51:53.497Z,3.90
2019-04-16T03:57:01.850Z,4.40
2019-04-16T04:02:08.555Z,4.27
2019-04-16T04:07:13.434Z,4.33
2019-04-16T04:12:18.331Z,4.57
2019-04-16T04:17:23.210Z,3.87
2019-04-16T04:22:27.357Z,3.30
2019-04-16T04:27:31.496Z,6.27
2019-04-16T04:32:36.293Z,5.30
2019-04-16T04:37:42.443Z,5.00
2019-04-16T04:42:48.279Z,5.03
2019-04-16T04:47:52.407Z,4.40
2019-04-16T04:52:56.560Z,3.47
2019-04-16T04:58:02.794Z,3.87
2019-04-16T05:03:12.379Z,3.87
2019-04-16T05:08:15.940Z,4.50
2019-04-16T05:13:23.894Z,5.37
2019-04-16T05:18:26.273Z,4.83
2019-04-16T05:23:30.408Z,4.67
2019-04-16T05:28:34.544Z,3.87
2019-04-16T05:33:38.681Z,4.03
2019-04-16T05:38:43.904Z,3.87
2019-04-16T05:43:48.708Z,5.03
2019-04-16T05:48:53.967Z,4.83
2019-04-16T05:54:02.615Z,3.97
2019-04-16T05:59:07.240Z,4.23
2019-04-16T06:04:11.441Z,4.47
2019-04-16T06:09:16.902Z,4.53
2019-04-16T06:14:30.369Z,5.30
2019-04-16T06:19:57.466Z,5.10
2019-04-16T06:25:33.408Z,3.97
2019-04-16T06:30:44.268Z,4.03
2019-04-16T06:36:14.087Z,5.30
2019-04-16T06:41:41.955Z,6.57
2019-04-16T06:47:01.728Z,4.43
2019-04-16T06:52:18.102Z,4.20
2019-04-16T06:57:42.882Z,4.30
2019-04-16T07:03:02.626Z,4.33
2019-04-16T07:08:36.805Z,5.80
2019-04-16T07:13:32.898Z,6.13
2019-04-16T07:18:38.628Z,4.33
2019-04-16T07:23:46.451Z,4.97
2019-04-16T07:29:00.108Z,5.03
2019-04-16T07:34:29.710Z,6.93
2019-04-16T07:39:53.917Z,6.77
2019-04-16T07:45:14.538Z,5.27
2019-04-16T07:50:44.583Z,6.17
2019-04-16T07:55:51.172Z,7.10
2019-04-16T08:01:00.297Z,6.47
2019-04-16T08:06:06.153Z,5.83
2019-04-16T08:11:10.597Z,6.67
2019-04-16T08:16:14.750Z,8.37
2019-04-16T08:21:22.319Z,8.10
2019-04-16T08:26:24.903Z,7.67
2019-04-16T08:31:33.098Z,7.23
2019-04-16T08:36:35.619Z,9.27
2019-04-16T08:41:40.928Z,9.90
2019-04-16T08:46:45.157Z,11.47
2019-04-16T08:51:49.605Z,8.70
2019-04-16T08:56:53.754Z,7.03
2019-04-16T09:01:58.337Z,7.37
2019-04-16T09:07:11.095Z,8.50
2019-04-16T09:12:09.748Z,8.83
2019-04-16T09:17:17.927Z,9.83
2019-04-16T09:22:22.633Z,7.07
2019-04-16T09:39:08.321Z,9.37
2019-04-16T09:44:12.981Z,11.07
2019-04-16T09:49:17.119Z,8.87
2019-04-16T09:54:22.783Z,9.43
2019-04-16T09:59:40.572Z,10.03
2019-04-16T10:04:44.701Z,9.43
2019-04-16T10:09:54.449Z,10.17
2019-04-16T10:14:58.574Z,9.23
2019-04-16T10:37:08.156Z,8.90
2019-04-16T10:42:44.615Z,9.50
2019-04-16T10:53:57.080Z,7.00
2019-04-16T10:59:28.984Z,8.93
2019-04-16T11:04:56.141Z,7.97
2019-04-16T11:10:00.626Z,8.40
2019-04-16T11:15:06.134Z,8.37
2019-04-16T11:20:11.607Z,6.63
2019-04-16T11:25:17.020Z,7.87
2019-04-16T11:30:30.852Z,7.07
2019-04-16T11:35:35.323Z,7.07
2019-04-16T11:40:41.210Z,8.80
2019-04-16T11:45:46.245Z,8.40
2019-04-16T11:50:50.644Z,7.13
2019-04-16T11:55:55.122Z,7.03
2019-04-16T12:01:07.513Z,8.27
2019-04-16T12:06:33.965Z,6.70
2019-04-16T12:11:51.869Z,5.50
2019-04-16T12:17:01.219Z,6.20
2019-04-16T12:22:19.993Z,5.83
2019-04-16T12:28:01.450Z,4.93
2019-04-16T12:33:26.778Z,8.70
2019-04-16T12:38:44.982Z,5.27
2019-04-16T12:44:10.214Z,4.57
2019-04-16T12:49:32.798Z,5.03
2019-04-16T12:54:59.892Z,6.40
2019-04-16T13:00:37.056Z,6.53
2019-04-16T13:05:50.942Z,5.90
2019-04-16T13:11:08.611Z,5.73
2019-04-16T13:16:18.141Z,10.10
2019-04-16T13:21:26.959Z,8.40
2019-04-16T13:43:22.764Z,5.33
2019-04-16T13:48:33.976Z,5.13
2019-04-16T13:54:07.288Z,4.97
2019-04-16T13:59:17.591Z,5.60
2019-04-16T14:04:22.098Z,5.90
2019-04-16T14:09:27.314Z,4.67
2019-04-16T14:14:31.730Z,5.57
2019-04-16T14:19:37.994Z,4.87
2019-04-16T14:24:42.274Z,4.87
2019-04-16T14:29:46.748Z,4.57
2019-04-16T14:34:53.027Z,5.30
2019-04-16T14:40:05.729Z,4.97
2019-04-16T14:45:53.599Z,6.83
2019-04-16T14:50:44.461Z,4.47
2019-04-16T14:56:00.742Z,4.70
2019-04-16T15:01:42.714Z,5.67
2019-04-16T15:07:06.163Z,4.27
2019-04-16T15:12:20.617Z,5.90
2019-04-16T15:17:31.506Z,4.67
2019-04-16T15:22:45.206Z,4.83
2019-04-16T15:28:06.239Z,5.03
2019-04-16T15:33:35.727Z,5.23
2019-04-16T15:39:17.708Z,4.47
2019-04-16T15:44:32.479Z,5.67
2019-04-16T15:49:44.992Z,5.07
2019-04-16T15:55:00.196Z,5.17
2019-04-16T16:00:19.444Z,8.23
2019-04-16T16:05:27.826Z,6.53
2019-04-16T16:10:39.079Z,5.53
2019-04-16T16:15:43.270Z,6.03
2019-04-16T16:20:47.653Z,6.67
2019-04-16T16:25:52.941Z,5.50
2019-04-16T16:31:05.028Z,5.23
2019-04-16T16:36:07.103Z,6.30
2019-04-16T16:41:11.248Z,4.50
2019-04-16T16:46:33.761Z,4.87
2019-04-16T16:51:39.996Z,3.70
2019-04-16T16:56:48.882Z,4.07
2019-04-16T17:02:16.237Z,4.90
2019-04-16T17:07:20.488Z,3.83
2019-04-16T17:12:24.872Z,4.47
2019-04-16T17:17:29.021Z,3.93
2019-04-16T17:22:33.695Z,3.77
2019-04-16T17:27:50.577Z,3.93
2019-04-16T17:32:44.537Z,3.57
2019-04-16T17:38:01.840Z,5.20
2019-04-16T17:43:13.837Z,6.10
2019-04-16T17:48:34.503Z,3.53
2019-04-16T17:53:50.747Z,4.00
2019-04-16T17:59:08.572Z,4.00
2019-04-16T18:04:26.660Z,4.63
2019-04-16T18:09:43.713Z,4.37
2019-04-16T18:15:08.876Z,3.80
2019-04-16T18:20:25.093Z,3.43
2019-04-16T18:25:55.530Z,3.60
2019-04-16T18:30:59.908Z,3.37
2019-04-16T18:36:29.800Z,3.00
2019-04-16T18:41:38.783Z,3.97
2019-04-16T18:47:16.524Z,3.83
2019-04-16T18:52:21.497Z,3.33
2019-04-16T18:57:30.216Z,3.20
2019-04-16T19:02:34.534Z,3.57
2019-04-16T19:13:24.847Z,3.10
2019-04-16T19:18:29.483Z,4.83
2019-04-16T19:23:35.016Z,3.40
2019-04-16T19:28:39.425Z,5.07
2019-04-16T19:33:45.342Z,3.90
2019-04-16T19:38:49.732Z,4.07
2019-04-16T19:43:54.144Z,4.30
2019-04-16T19:49:01.408Z,4.20
2019-04-16T19:54:06.118Z,4.53
2019-04-16T19:59:10.268Z,3.83
2019-04-16T20:04:14.485Z,4.20
2019-04-16T20:09:19.010Z,3.60
2019-04-16T20:14:23.459Z,3.60
2019-04-16T20:19:29.110Z,4.30
2019-04-16T20:24:38.049Z,3.57
2019-04-16T20:29:42.233Z,3.70
2019-04-16T20:34:46.401Z,3.73
2019-04-16T20:39:50.541Z,8.90
2019-04-16T20:44:54.965Z,9.63
2019-04-16T20:49:59.129Z,7.57
2019-04-16T20:55:03.969Z,6.33
2019-04-16T21:00:11.047Z,5.87
2019-04-16T21:05:22.388Z,5.00
2019-04-16T21:10:24.968Z,3.33
2019-04-16T21:15:29.344Z,2.67
2019-04-16T21:20:35.296Z,2.90
2019-04-16T21:25:42.914Z,2.80
2019-04-16T21:30:50.828Z,3.90
2019-04-16T21:35:57.221Z,4.63
2019-04-16T21:41:01.651Z,3.33
2019-04-16T21:46:07.704Z,2.80
2019-04-16T21:51:12.216Z,3.63
2019-04-16T21:56:16.386Z,2.73
2019-04-16T22:01:41.200Z,2.27
2019-04-16T22:06:45.594Z,3.43
2019-04-16T22:11:49.833Z,2.87
2019-04-16T22:16:53.985Z,2.70
2019-04-16T22:21:58.502Z,2.60
2019-04-16T22:27:06.067Z,3.77
2019-04-16T22:32:09.117Z,3.07
2019-04-16T22:37:14.253Z,3.17
2019-04-16T22:42:29.790Z,2.50
2019-04-16T22:47:33.630Z,2.80
2019-04-16T22:52:41.645Z,2.43
2019-04-16T22:57:44.723Z,2.23
2019-04-16T23:02:49.188Z,3.63
2019-04-16T23:07:55.552Z,2.93
2019-04-16T23:13:01.352Z,1.87
2019-04-16T23:18:05.547Z,2.67
2019-04-16T23:23:09.733Z,2.23
2019-04-16T23:28:14.115Z,2.33
2019-04-16T23:33:18.492Z,2.00
2019-04-16T23:38:23.253Z,2.43
2019-04-16T23:43:43.530Z,3.43
2019-04-16T23:49:07.419Z,2.00
2019-04-16T23:54:32.010Z,2.20
2019-04-16T23:59:54.441Z,1.97
